createdAt,value
2023-02-13T00:02:18.034Z,5.30
2023-02-13T00:07:19.862Z,5.30
2023-02-13T00:12:21.645Z,5.20
2023-02-13T00:17:23.422Z,5.20
2023-02-13T00:22:25.327Z,5.20
2023-02-13T00:27:27.056Z,5.20
2023-02-13T00:32:28.866Z,5.20
2023-02-13T00:37:30.844Z,5.10
2023-02-13T00:42:32.594Z,5.00
2023-02-13T00:47:34.351Z,4.80
2023-02-13T00:52:36.099Z,4.80
2023-02-13T00:57:37.900Z,4.70
2023-02-13T01:02:39.631Z,4.40
2023-02-13T01:07:41.351Z,4.40
2023-02-13T01:12:43.072Z,4.20
2023-02-13T01:17:44.814Z,4.20
2023-02-13T01:22:46.698Z,3.90
2023-02-13T01:27:48.492Z,3.50
2023-02-13T01:32:52.605Z,3.40
2023-02-13T01:37:54.363Z,3.20
2023-02-13T01:42:56.064Z,3.10
2023-02-13T01:48:25.433Z,2.90
2023-02-13T01:53:45.626Z,2.90
2023-02-13T01:58:52.791Z,2.80
2023-02-13T02:04:12.641Z,2.70
2023-02-13T02:09:23.600Z,2.70
2023-02-13T02:14:28.375Z,2.50
2023-02-13T02:19:52.926Z,2.20
2023-02-13T02:25:33.074Z,2.00
2023-02-13T02:31:12.481Z,2.00
2023-02-13T02:36:29.235Z,2.10
2023-02-13T02:41:56.554Z,2.10
2023-02-13T02:47:43.128Z,2.00
2023-02-13T02:53:20.923Z,1.80
2023-02-13T02:58:52.100Z,1.70
2023-02-13T03:04:15.979Z,1.60
2023-02-13T03:09:47.478Z,1.70
2023-02-13T03:14:49.287Z,1.60
2023-02-13T03:20:27.204Z,1.60
2023-02-13T03:26:05.358Z,1.60
2023-02-13T03:31:34.158Z,1.60
2023-02-13T03:36:57.990Z,1.50
2023-02-13T03:42:15.395Z,1.50
2023-02-13T03:47:17.278Z,1.40
2023-02-13T03:52:24.528Z,1.30
2023-02-13T03:57:47.994Z,1.30
2023-02-13T04:03:11.939Z,1.40
2023-02-13T04:08:14.239Z,1.30
2023-02-13T04:13:26.583Z,1.20
2023-02-13T04:18:31.340Z,1.20
2023-02-13T04:23:34.731Z,1.10
2023-02-13T04:28:37.754Z,1.20
2023-02-13T04:33:39.566Z,1.20
2023-02-13T04:38:41.341Z,1.10
2023-02-13T04:43:43.094Z,1.10
2023-02-13T04:48:44.901Z,1.10
2023-02-13T04:53:46.663Z,1.10
2023-02-13T04:58:48.453Z,1.10
2023-02-13T05:03:50.244Z,1.00
2023-02-13T05:08:51.974Z,1.00
2023-02-13T05:13:53.755Z,0.90
2023-02-13T05:18:58.096Z,0.90
2023-02-13T05:23:59.831Z,1.10
2023-02-13T05:29:20.006Z,1.20
2023-02-13T05:34:23.966Z,1.20
2023-02-13T05:39:25.671Z,1.20
2023-02-13T05:44:27.557Z,1.00
2023-02-13T05:49:29.298Z,0.90
2023-02-13T05:54:31.043Z,0.90
2023-02-13T05:59:32.741Z,0.90
2023-02-13T06:04:34.561Z,0.90
2023-02-13T06:09:36.299Z,1.00
2023-02-13T06:14:38.009Z,1.10
2023-02-13T06:19:39.746Z,1.00
2023-02-13T06:24:41.613Z,0.80
2023-02-13T06:29:43.406Z,0.80
2023-02-13T06:34:45.182Z,0.90
2023-02-13T06:39:46.961Z,0.90
2023-02-13T06:44:48.724Z,0.80
2023-02-13T06:49:50.460Z,0.90
2023-02-13T06:54:52.230Z,1.00
2023-02-13T06:59:53.973Z,1.10
2023-02-13T07:04:55.718Z,1.20
2023-02-13T07:09:57.472Z,1.30
2023-02-13T07:14:59.387Z,1.40
2023-02-13T07:20:01.351Z,1.50
2023-02-13T07:25:03.226Z,1.30
2023-02-13T07:30:05.963Z,1.60
2023-02-13T07:35:07.950Z,2.10
2023-02-13T07:40:10.418Z,2.40
2023-02-13T07:45:12.459Z,2.60
2023-02-13T07:50:14.680Z,3.00
2023-02-13T07:55:16.556Z,3.60
2023-02-13T08:00:19.020Z,3.90
2023-02-13T08:05:20.781Z,4.40
2023-02-13T08:10:41.537Z,4.50
2023-02-13T08:15:47.042Z,4.30
2023-02-13T08:20:48.869Z,4.20
2023-02-13T08:25:50.885Z,3.80
2023-02-13T08:30:52.691Z,3.90
2023-02-13T08:35:54.517Z,4.60
2023-02-13T08:40:59.655Z,4.70
2023-02-13T08:46:01.731Z,4.60
2023-02-13T08:51:08.272Z,5.30
2023-02-13T08:56:11.391Z,5.10
2023-02-13T09:01:13.434Z,5.00
2023-02-13T09:06:15.462Z,5.50
2023-02-13T09:11:17.542Z,5.90
2023-02-13T09:16:19.652Z,6.50
2023-02-13T09:21:25.342Z,6.20
2023-02-13T09:26:27.035Z,5.90
2023-02-13T09:31:29.843Z,5.40
2023-02-13T09:36:33.107Z,5.10
2023-02-13T09:41:39.863Z,5.40
2023-02-13T09:46:44.109Z,5.50
2023-02-13T09:51:54.324Z,6.00
2023-02-13T09:57:15.582Z,6.00
2023-02-13T10:02:31.697Z,5.70
2023-02-13T10:07:47.107Z,6.00
2023-02-13T10:13:03.676Z,6.10
2023-02-13T10:18:12.757Z,6.60
2023-02-13T10:23:36.532Z,8.20
2023-02-13T10:29:09.082Z,8.60
2023-02-13T10:34:16.082Z,8.40
2023-02-13T10:39:27.275Z,7.10
2023-02-13T10:44:52.645Z,6.80
2023-02-13T10:50:22.351Z,7.90
2023-02-13T10:55:47.980Z,7.20
2023-02-13T11:00:59.141Z,7.70
2023-02-13T11:06:12.359Z,8.10
2023-02-13T11:11:40.525Z,7.30
2023-02-13T11:17:02.750Z,9.20
2023-02-13T11:22:08.029Z,10.10
2023-02-13T11:27:13.789Z,8.40
2023-02-13T11:32:21.156Z,8.80
2023-02-13T11:37:26.071Z,9.50
2023-02-13T11:42:34.621Z,9.50
2023-02-13T11:47:40.704Z,10.30
2023-02-13T11:52:43.198Z,11.00
2023-02-13T11:58:00.991Z,9.90
2023-02-13T12:03:22.923Z,11.00
2023-02-13T12:08:24.905Z,9.60
2023-02-13T12:13:41.825Z,9.20
2023-02-13T12:18:50.274Z,11.00
2023-02-13T12:24:22.632Z,12.30
2023-02-13T12:29:51.481Z,11.90
2023-02-13T12:35:35.405Z,11.40
2023-02-13T12:40:51.690Z,12.00
2023-02-13T12:46:03.702Z,12.50
2023-02-13T12:51:38.442Z,13.10
2023-02-13T12:56:49.058Z,13.30
2023-02-13T13:02:14.191Z,12.20
2023-02-13T13:07:38.319Z,13.00
2023-02-13T13:12:50.013Z,13.10
2023-02-13T13:18:07.549Z,12.20
2023-02-13T13:23:20.036Z,11.60
2023-02-13T13:28:29.460Z,11.60
2023-02-13T13:33:33.020Z,11.70
2023-02-13T13:38:53.861Z,12.20
2023-02-13T13:44:23.820Z,12.90
2023-02-13T13:49:35.350Z,11.90
2023-02-13T13:54:37.456Z,12.20
2023-02-13T13:59:39.220Z,12.20
2023-02-13T14:05:02.781Z,12.10
2023-02-13T14:10:06.171Z,11.50
2023-02-13T14:15:33.920Z,12.30
2023-02-13T14:20:51.647Z,12.10
2023-02-13T14:26:15.122Z,11.40
2023-02-13T14:31:27.730Z,10.60
2023-02-13T14:36:36.216Z,11.00
2023-02-13T14:41:51.536Z,11.30
2023-02-13T14:46:55.353Z,11.00
2023-02-13T14:52:01.228Z,10.50
2023-02-13T14:57:20.052Z,10.30
2023-02-13T15:02:23.133Z,11.00
2023-02-13T15:07:32.089Z,11.00
2023-02-13T15:12:37.979Z,10.30
2023-02-13T15:17:40.296Z,10.30
2023-02-13T15:22:47.041Z,10.10
2023-02-13T15:27:53.829Z,10.40
2023-02-13T15:33:25.262Z,10.10
2023-02-13T15:38:33.959Z,9.90
2023-02-13T15:43:43.050Z,9.50
2023-02-13T15:48:46.754Z,9.10
2023-02-13T15:53:53.575Z,8.60
2023-02-13T15:58:56.294Z,8.50
2023-02-13T16:04:05.488Z,8.40
2023-02-13T16:09:07.577Z,8.40
2023-02-13T16:14:18.247Z,8.20
2023-02-13T16:19:44.738Z,8.00
2023-02-13T16:24:52.892Z,7.70
2023-02-13T16:29:58.740Z,7.50
2023-02-13T16:35:28.932Z,7.30
2023-02-13T16:40:39.586Z,7.00
2023-02-13T16:45:41.390Z,6.90
2023-02-13T16:50:43.383Z,6.50
2023-02-13T16:55:45.360Z,6.40
2023-02-13T17:00:50.410Z,6.10
2023-02-13T17:05:52.114Z,5.90
2023-02-13T17:11:07.469Z,5.80
2023-02-13T17:16:10.181Z,5.50
2023-02-13T17:21:12.612Z,5.40
2023-02-13T17:26:14.434Z,5.10
2023-02-13T17:31:16.341Z,4.90
2023-02-13T17:36:18.294Z,4.60
2023-02-13T17:41:20.661Z,4.50
2023-02-13T17:46:22.460Z,4.40
2023-02-13T17:51:24.253Z,4.30
2023-02-13T17:56:25.992Z,4.30
2023-02-13T18:01:27.763Z,4.30
2023-02-13T18:06:29.724Z,4.00
2023-02-13T18:11:31.613Z,3.90
2023-02-13T18:16:33.401Z,4.00
2023-02-13T18:21:35.102Z,3.90
2023-02-13T18:26:36.788Z,3.80
2023-02-13T18:31:38.623Z,3.70
2023-02-13T18:36:40.429Z,3.60
2023-02-13T18:41:42.545Z,3.50
2023-02-13T18:46:44.314Z,3.30
2023-02-13T18:51:46.724Z,3.20
2023-02-13T18:56:48.727Z,3.30
2023-02-13T19:01:51.177Z,3.10
2023-02-13T19:06:53.067Z,2.80
2023-02-13T19:11:54.781Z,3.20
2023-02-13T19:16:56.520Z,3.40
2023-02-13T19:21:58.253Z,3.40
2023-02-13T19:27:00.455Z,3.10
2023-02-13T19:32:03.754Z,3.00
2023-02-13T19:37:06.099Z,3.00
2023-02-13T19:42:07.945Z,2.80
2023-02-13T19:47:09.980Z,2.80
2023-02-13T19:52:11.970Z,2.80
2023-02-13T19:57:14.809Z,2.80
2023-02-13T20:02:17.437Z,2.70
2023-02-13T20:07:19.499Z,2.70
2023-02-13T20:12:21.396Z,2.60
2023-02-13T20:17:23.365Z,2.60
2023-02-13T20:22:25.190Z,2.50
2023-02-13T20:27:26.890Z,2.50
2023-02-13T20:32:28.664Z,2.50
2023-02-13T20:37:31.326Z,2.40
2023-02-13T20:42:33.932Z,2.40
2023-02-13T20:47:35.758Z,2.40
2023-02-13T20:52:37.925Z,2.80
2023-02-13T20:57:39.673Z,2.80
2023-02-13T21:02:41.440Z,2.50
2023-02-13T21:07:43.636Z,2.30
2023-02-13T21:12:45.401Z,2.20
2023-02-13T21:17:47.144Z,2.10
2023-02-13T21:22:48.917Z,2.00
2023-02-13T21:27:50.664Z,2.10
2023-02-13T21:32:52.367Z,1.90
2023-02-13T21:37:54.114Z,2.00
2023-02-13T21:42:55.980Z,2.00
2023-02-13T21:47:57.938Z,1.90
2023-02-13T21:52:59.774Z,1.80
2023-02-13T21:58:01.590Z,1.50
2023-02-13T22:03:04.040Z,1.50
2023-02-13T22:08:12.028Z,1.50
2023-02-13T22:13:14.213Z,1.50
2023-02-13T22:18:16.028Z,1.50
2023-02-13T22:23:17.874Z,1.60
2023-02-13T22:28:19.723Z,1.60
2023-02-13T22:33:21.618Z,1.60
2023-02-13T22:38:23.377Z,1.60
2023-02-13T22:43:25.121Z,1.50
2023-02-13T22:48:26.827Z,1.50
2023-02-13T22:53:28.537Z,1.50
2023-02-13T22:58:30.274Z,1.50
2023-02-13T23:03:32.964Z,1.50
2023-02-13T23:08:35.403Z,1.40
2023-02-13T23:13:37.219Z,1.20
2023-02-13T23:18:38.997Z,1.20
2023-02-13T23:23:40.761Z,1.00
2023-02-13T23:28:42.540Z,0.90
2023-02-13T23:33:44.231Z,0.80
2023-02-13T23:38:46.562Z,0.70
2023-02-13T23:43:48.306Z,1.10
2023-02-13T23:48:50.038Z,1.40
2023-02-13T23:53:55.896Z,1.30
2023-02-13T23:58:57.673Z,1.20
